Time;durP1;ratioP1;P1;durP2;ratioP2;P2;SDS_P1;SDS_P2;PMS_P1;PMS_P2;Temp;Humidity;BMP_temperature;BMP_pressure;BME280_temperature;BME280_humidity;BME280_pressure;Samples;Min_cycle;Max_cycle;Signal;HPM_P1;HPM_P2
2023/10/15 00:02:13;;;;;;;22.23;10.05;;;10.50;99.90;;;;;;4396330;28;658662;-65
2023/10/15 00:05:01;;;;;;;22.57;10.07;;;10.60;99.90;;;;;;4418836;28;659935;-65
2023/10/15 00:07:49;;;;;;;17.87;8.57;;;10.60;99.90;;;;;;4413520;28;659001;-65
2023/10/15 00:10:36;;;;;;;25.70;10.30;;;10.70;99.90;;;;;;4419195;28;657734;-65
2023/10/15 00:13:24;;;;;;;18.48;9.88;;;10.60;99.90;;;;;;4406482;28;659042;-65
2023/10/15 00:16:18;;;;;;;23.57;9.47;;;10.50;99.90;;;;;;4429834;28;657436;-66
2023/10/15 00:19:10;;;;;;;28.23;9.57;;;10.60;99.90;;;;;;4410590;28;657590;-66
2023/10/15 00:21:57;;;;;;;27.30;8.77;;;10.50;99.90;;;;;;4392554;28;658617;-65
2023/10/15 00:24:45;;;;;;;22.10;8.67;;;10.40;99.90;;;;;;4433637;28;659318;-65
2023/10/15 00:27:33;;;;;;;17.73;8.47;;;10.50;99.90;;;;;;4423904;28;657615;-65
2023/10/15 00:30:20;;;;;;;22.83;9.73;;;10.50;99.90;;;;;;4431178;28;659364;-65
2023/10/15 00:33:11;;;;;;;18.93;9.03;;;10.50;99.90;;;;;;4412890;28;658129;-66
2023/10/15 00:35:59;;;;;;;18.97;8.50;;;10.40;99.90;;;;;;4410857;28;657840;-66
2023/10/15 00:38:46;;;;;;;19.63;8.17;;;10.50;99.90;;;;;;4428535;28;657403;-65
2023/10/15 00:41:34;;;;;;;28.30;10.13;;;10.50;99.90;;;;;;4410692;28;657610;-66
2023/10/15 00:44:21;;;;;;;30.27;9.00;;;10.50;99.90;;;;;;4431300;28;658889;-65
2023/10/15 00:47:15;;;;;;;22.47;9.33;;;10.60;99.90;;;;;;4409678;28;657892;-66
2023/10/15 00:50:08;;;;;;;22.20;9.53;;;10.40;99.90;;;;;;4395084;28;658308;-66
2023/10/15 00:52:57;;;;;;;21.60;10.37;;;10.40;99.90;;;;;;4406842;28;658196;-66
2023/10/15 00:55:44;;;;;;;17.87;9.43;;;10.30;99.90;;;;;;4408932;28;660364;-66
2023/10/15 00:58:39;;;;;;;19.00;8.90;;;10.30;99.90;;;;;;4427103;28;657281;-65
2023/10/15 01:01:33;;;;;;;18.20;8.70;;;10.40;99.90;;;;;;4404295;28;658268;-66
2023/10/15 01:04:24;;;;;;;19.07;8.90;;;10.40;99.90;;;;;;4408011;28;658060;-66
2023/10/15 01:07:22;;;;;;;17.93;8.10;;;10.40;99.90;;;;;;4417057;28;657525;-66
2023/10/15 01:10:19;;;;;;;18.80;8.00;;;10.40;99.90;;;;;;4424302;28;659603;-66
2023/10/15 01:13:17;;;;;;;26.80;9.83;;;10.30;99.90;;;;;;4418287;28;657780;-66
2023/10/15 01:16:05;;;;;;;17.60;7.90;;;10.30;99.90;;;;;;4419140;28;658336;-66
2023/10/15 01:18:57;;;;;;;24.80;8.13;;;10.30;99.90;;;;;;4425286;28;657626;-66
2023/10/15 01:21:57;;;;;;;16.40;8.47;;;10.20;99.90;;;;;;4415895;28;658613;-66
2023/10/15 01:24:53;;;;;;;15.93;6.77;;;10.20;99.90;;;;;;4420513;28;658330;-66
2023/10/15 01:27:41;;;;;;;21.50;7.17;;;10.20;99.90;;;;;;4410269;28;658119;-66
2023/10/15 01:30:36;;;;;;;19.42;6.20;;;10.10;99.90;;;;;;4413525;28;658368;-66
2023/10/15 01:33:23;;;;;;;20.17;6.20;;;10.20;99.90;;;;;;4374653;28;659045;-66
2023/10/15 01:36:15;;;;;;;15.73;6.17;;;10.20;99.90;;;;;;4432323;28;658933;-66
2023/10/15 01:39:09;;;;;;;17.63;6.30;;;10.10;99.90;;;;;;4406418;28;657889;-66
2023/10/15 01:42:03;;;;;;;17.60;5.83;;;10.10;99.90;;;;;;4415215;28;657531;-66
2023/10/15 01:44:52;;;;;;;23.30;6.43;;;10.00;99.90;;;;;;4416851;28;657821;-66
2023/10/15 01:47:46;;;;;;;18.60;5.72;;;10.00;99.90;;;;;;4418954;28;658244;-66
2023/10/15 01:50:44;;;;;;;17.90;5.13;;;9.90;99.90;;;;;;4393762;28;657650;-66
2023/10/15 01:53:34;;;;;;;20.03;5.77;;;9.90;99.90;;;;;;4398806;28;657340;-65
2023/10/15 01:56:23;;;;;;;19.97;5.70;;;9.70;99.90;;;;;;4418597;28;656355;-66
2023/10/15 01:59:12;;;;;;;14.50;4.63;;;9.70;99.90;;;;;;4424416;28;657766;-66
2023/10/15 02:01:59;;;;;;;12.87;4.87;;;9.60;99.90;;;;;;4416442;28;657395;-66
2023/10/15 02:04:46;;;;;;;21.80;4.63;;;9.50;99.90;;;;;;4436944;28;657459;-66
2023/10/15 02:07:35;;;;;;;20.23;4.57;;;9.30;99.90;;;;;;4405354;28;656647;-66
2023/10/15 02:10:26;;;;;;;15.00;4.43;;;9.40;99.90;;;;;;4403297;28;658080;-66
2023/10/15 02:13:16;;;;;;;12.43;4.00;;;9.50;99.90;;;;;;4408390;28;656938;-65
2023/10/15 02:16:09;;;;;;;13.63;3.87;;;9.50;99.90;;;;;;4412653;28;657150;-66
2023/10/15 02:18:58;;;;;;;12.40;3.73;;;9.60;99.90;;;;;;4408358;28;657545;-66
2023/10/15 02:21:49;;;;;;;14.17;4.50;;;9.50;99.90;;;;;;4406664;28;657073;-66
2023/10/15 02:24:37;;;;;;;12.17;3.57;;;9.50;99.90;;;;;;4404097;28;656312;-66
2023/10/15 02:27:25;;;;;;;21.20;4.00;;;9.40;99.90;;;;;;4413479;28;657317;-66
2023/10/15 02:30:14;;;;;;;11.83;4.17;;;9.40;99.90;;;;;;4430879;28;656122;-66
2023/10/15 02:33:06;;;;;;;12.30;3.87;;;9.40;99.90;;;;;;4429135;28;657116;-66
2023/10/15 02:35:54;;;;;;;11.50;3.17;;;9.20;99.90;;;;;;4410688;28;657158;-66
2023/10/15 02:38:52;;;;;;;14.33;3.40;;;9.20;99.90;;;;;;4436817;28;656946;-66
2023/10/15 02:41:42;;;;;;;13.80;3.47;;;9.10;99.90;;;;;;4370024;28;657921;-66
2023/10/15 02:44:32;;;;;;;16.83;3.93;;;9.20;99.90;;;;;;4402223;28;658295;-66
2023/10/15 02:47:31;;;;;;;11.20;3.93;;;9.20;99.90;;;;;;4401540;28;657670;-66
2023/10/15 02:50:23;;;;;;;8.33;3.23;;;9.10;99.90;;;;;;4405701;28;656205;-66
2023/10/15 02:53:11;;;;;;;15.30;3.50;;;9.10;99.90;;;;;;4412199;28;656124;-66
2023/10/15 02:55:59;;;;;;;17.23;3.30;;;9.00;99.90;;;;;;4401815;28;656525;-66
2023/10/15 02:58:46;;;;;;;16.17;4.13;;;9.00;99.90;;;;;;4415026;28;656805;-65
2023/10/15 03:01:34;;;;;;;12.17;3.10;;;8.90;99.90;;;;;;4396604;28;656897;-65
2023/10/15 03:04:32;;;;;;;14.03;3.43;;;9.00;99.90;;;;;;4435635;28;656480;-66
2023/10/15 03:07:29;;;;;;;13.90;3.10;;;9.00;99.90;;;;;;4401489;28;657485;-65
2023/10/15 03:10:21;;;;;;;12.40;3.13;;;8.90;99.90;;;;;;4427127;28;656386;-65
2023/10/15 03:13:14;;;;;;;13.48;3.17;;;8.90;99.90;;;;;;4399560;28;656672;-65
2023/10/15 03:16:07;;;;;;;16.97;3.10;;;8.80;99.90;;;;;;4415694;28;657452;-66
2023/10/15 03:18:56;;;;;;;11.30;3.23;;;8.80;99.90;;;;;;4416534;28;656500;-65
2023/10/15 03:21:44;;;;;;;12.67;2.87;;;8.70;99.90;;;;;;4420262;28;656891;-65
2023/10/15 03:24:34;;;;;;;16.57;3.33;;;8.70;99.90;;;;;;4435065;28;656109;-65
2023/10/15 03:27:23;;;;;;;19.10;4.00;;;8.60;99.90;;;;;;4414167;28;656758;-66
2023/10/15 03:30:11;;;;;;;12.80;3.27;;;8.60;99.90;;;;;;4415559;28;657607;-65
2023/10/15 03:33:00;;;;;;;13.83;2.63;;;8.60;99.90;;;;;;4422747;28;657242;-65
2023/10/15 03:35:54;;;;;;;10.90;2.67;;;8.70;99.90;;;;;;4427556;28;657352;-65
2023/10/15 03:38:46;;;;;;;9.83;2.47;;;8.70;99.90;;;;;;4414247;28;657373;-66
2023/10/15 03:41:39;;;;;;;11.00;2.50;;;8.60;99.90;;;;;;4397755;28;657341;-65
2023/10/15 03:44:31;;;;;;;10.53;2.83;;;8.50;99.90;;;;;;4411246;28;656630;-65
2023/10/15 03:47:22;;;;;;;11.70;2.47;;;8.50;99.90;;;;;;4395821;28;656924;-66
2023/10/15 03:50:09;;;;;;;11.73;2.57;;;8.40;99.90;;;;;;4410992;28;658634;-65
2023/10/15 03:52:57;;;;;;;8.33;2.43;;;8.40;99.90;;;;;;4415984;28;656564;-65
2023/10/15 03:55:44;;;;;;;14.53;3.20;;;8.40;99.90;;;;;;4417253;28;657206;-65
2023/10/15 03:58:33;;;;;;;8.83;2.60;;;8.30;99.90;;;;;;4448868;28;656954;-65
2023/10/15 04:01:22;;;;;;;10.93;2.33;;;8.30;99.90;;;;;;4426859;28;656675;-65
2023/10/15 04:04:09;;;;;;;9.43;2.60;;;8.30;99.90;;;;;;4416528;28;657386;-65
2023/10/15 04:07:11;;;;;;;12.25;2.60;;;8.30;99.90;;;;;;4432624;28;656284;-65
2023/10/15 04:10:03;;;;;;;16.43;3.57;;;8.20;99.90;;;;;;4392248;28;657156;-65
2023/10/15 04:12:51;;;;;;;10.38;2.60;;;8.20;99.90;;;;;;4413377;28;656628;-65
2023/10/15 04:15:39;;;;;;;13.30;2.93;;;8.10;99.90;;;;;;4413975;28;656892;-65
2023/10/15 04:18:27;;;;;;;15.57;3.03;;;8.00;99.90;;;;;;4432998;28;657706;-65
2023/10/15 04:21:16;;;;;;;12.27;2.40;;;7.80;99.90;;;;;;4408152;28;656399;-65
2023/10/15 04:24:04;;;;;;;11.77;2.90;;;7.70;99.90;;;;;;4408438;28;656519;-65
2023/10/15 04:26:51;;;;;;;12.53;2.70;;;7.70;99.90;;;;;;4422994;28;656907;-65
2023/10/15 04:29:48;;;;;;;13.53;3.33;;;7.70;99.90;;;;;;4409966;28;656453;-65
2023/10/15 04:32:47;;;;;;;11.67;2.70;;;7.60;99.90;;;;;;4403214;28;656776;-65
2023/10/15 04:35:34;;;;;;;11.50;2.20;;;7.50;99.90;;;;;;4407202;28;656926;-65
2023/10/15 04:38:28;;;;;;;9.03;2.40;;;7.50;99.90;;;;;;4410931;28;656687;-65
2023/10/15 04:41:21;;;;;;;12.70;2.20;;;7.50;99.90;;;;;;4411748;28;655877;-65
2023/10/15 04:44:14;;;;;;;15.07;2.63;;;7.50;99.90;;;;;;4408037;28;656296;-65
2023/10/15 04:47:08;;;;;;;5.70;2.37;;;7.40;99.90;;;;;;4405013;28;656640;-65
2023/10/15 04:49:57;;;;;;;10.13;2.40;;;7.40;99.90;;;;;;4411669;28;656190;-65
2023/10/15 04:52:45;;;;;;;10.17;2.27;;;7.30;99.90;;;;;;4404623;28;657283;-65
2023/10/15 04:55:32;;;;;;;16.53;3.03;;;7.20;99.90;;;;;;4430664;28;656183;-65
2023/10/15 04:58:20;;;;;;;8.67;2.67;;;7.20;99.90;;;;;;4432680;28;657945;-66
2023/10/15 05:01:08;;;;;;;11.10;2.75;;;7.20;99.90;;;;;;4413677;28;656179;-66
2023/10/15 05:03:55;;;;;;;9.13;2.50;;;7.10;99.90;;;;;;4431544;28;656875;-66
2023/10/15 05:06:44;;;;;;;7.17;2.17;;;7.00;99.90;;;;;;4414911;28;655364;-65
2023/10/15 05:09:39;;;;;;;9.43;2.27;;;7.00;99.90;;;;;;4428737;28;656132;-65
2023/10/15 05:12:28;;;;;;;15.70;2.60;;;7.00;99.90;;;;;;4405427;28;655544;-65
2023/10/15 05:15:15;;;;;;;11.10;2.20;;;7.00;99.90;;;;;;4409848;28;656814;-66
2023/10/15 05:18:04;;;;;;;9.57;2.23;;;6.90;99.90;;;;;;4413251;28;656354;-66
2023/10/15 05:20:52;;;;;;;12.13;2.60;;;6.80;99.90;;;;;;4433789;28;655627;-66
2023/10/15 05:23:40;;;;;;;13.67;2.80;;;6.80;99.90;;;;;;4410462;28;656931;-65
2023/10/15 05:26:28;;;;;;;12.68;2.10;;;6.80;99.90;;;;;;4411438;28;656328;-65
2023/10/15 05:29:15;;;;;;;12.20;1.97;;;6.80;99.90;;;;;;4432238;28;657632;-65
2023/10/15 05:32:03;;;;;;;9.10;2.43;;;6.70;99.90;;;;;;4412861;28;656549;-66
2023/10/15 05:34:51;;;;;;;7.57;2.40;;;6.70;99.90;;;;;;4425734;28;656444;-66
2023/10/15 05:37:39;;;;;;;8.17;2.30;;;6.60;99.90;;;;;;4409971;28;655268;-66
2023/10/15 05:40:29;;;;;;;7.53;2.30;;;6.60;99.90;;;;;;4428583;28;655246;-66
2023/10/15 05:43:17;;;;;;;10.50;2.27;;;6.60;99.90;;;;;;4414797;28;655084;-66
2023/10/15 05:46:04;;;;;;;8.30;2.50;;;6.60;99.90;;;;;;4403829;28;656595;-66
2023/10/15 05:48:51;;;;;;;7.20;1.97;;;6.60;99.90;;;;;;4387343;28;655601;-66
2023/10/15 05:51:39;;;;;;;7.80;2.20;;;6.80;99.90;;;;;;4331018;28;655633;-66
2023/10/15 05:54:26;;;;;;;11.73;2.40;;;6.90;99.90;;;;;;4301639;28;656796;-66
2023/10/15 05:57:15;;;;;;;14.53;3.10;;;7.00;99.90;;;;;;4291369;28;657888;-66
2023/10/15 06:00:17;;;;;;;11.60;3.87;;;7.00;99.90;;;;;;4407177;28;656862;-66
2023/10/15 06:03:05;;;;;;;13.20;3.70;;;7.10;99.90;;;;;;4407814;28;656335;-66
2023/10/15 06:05:57;;;;;;;9.17;3.17;;;7.10;99.90;;;;;;4348472;28;656414;-67
2023/10/15 06:08:44;;;;;;;11.57;3.03;;;7.00;99.90;;;;;;4403933;28;656954;-66
2023/10/15 06:11:31;;;;;;;8.17;2.60;;;7.10;99.90;;;;;;4432913;28;657064;-66
2023/10/15 06:14:20;;;;;;;6.60;1.77;;;7.10;99.90;;;;;;4406088;28;656916;-65
2023/10/15 06:17:08;;;;;;;15.52;2.28;;;7.20;99.90;;;;;;4410026;28;655459;-65
2023/10/15 06:19:55;;;;;;;8.70;1.67;;;7.20;99.90;;;;;;4428299;28;657925;-65
2023/10/15 06:22:43;;;;;;;9.60;2.10;;;7.30;99.90;;;;;;4410151;28;655903;-66
2023/10/15 06:25:30;;;;;;;4.07;1.30;;;7.20;99.90;;;;;;4427649;28;657536;-65
2023/10/15 06:28:17;;;;;;;11.57;2.00;;;7.40;99.90;;;;;;4417913;28;656164;-65
2023/10/15 06:31:09;;;;;;;10.47;1.73;;;7.50;99.90;;;;;;4432358;28;656470;-65
2023/10/15 06:33:56;;;;;;;6.73;1.70;;;7.40;99.90;;;;;;4404221;28;657103;-65
2023/10/15 06:36:43;;;;;;;6.03;1.60;;;7.60;99.90;;;;;;4414783;28;655861;-65
2023/10/15 06:39:34;;;;;;;12.57;1.87;;;7.70;99.90;;;;;;4401603;28;656496;-65
2023/10/15 06:42:22;;;;;;;6.77;2.30;;;7.70;99.90;;;;;;4429292;28;656526;-65
2023/10/15 06:45:10;;;;;;;10.10;2.07;;;7.70;99.90;;;;;;4409245;28;656548;-65
2023/10/15 06:48:00;;;;;;;3.07;1.07;;;7.70;99.90;;;;;;4414515;28;656444;-65
2023/10/15 06:50:47;;;;;;;7.47;1.67;;;7.90;99.90;;;;;;4421844;28;655415;-64
2023/10/15 06:53:35;;;;;;;9.80;2.03;;;7.90;99.90;;;;;;4428917;28;657296;-65
2023/10/15 06:56:22;;;;;;;9.37;1.87;;;7.90;99.90;;;;;;4412851;28;655848;-65
2023/10/15 06:59:10;;;;;;;6.10;1.60;;;7.80;99.90;;;;;;4421425;28;656747;-65
2023/10/15 07:01:58;;;;;;;10.17;2.00;;;8.00;99.90;;;;;;4411862;28;655950;-65
2023/10/15 07:04:46;;;;;;;9.77;1.43;;;8.00;99.90;;;;;;4429516;28;657612;-65
2023/10/15 07:07:34;;;;;;;10.20;2.00;;;8.10;99.90;;;;;;4401558;28;655379;-65
2023/10/15 07:10:21;;;;;;;3.07;0.97;;;8.00;99.90;;;;;;4415224;28;657937;-65
2023/10/15 07:13:10;;;;;;;2.90;1.20;;;8.10;99.90;;;;;;4409836;28;655698;-65
2023/10/15 07:15:57;;;;;;;13.90;2.67;;;8.20;99.90;;;;;;4433161;28;655499;-65
2023/10/15 07:18:44;;;;;;;9.30;1.80;;;8.20;99.90;;;;;;4406504;28;657200;-65
2023/10/15 07:21:33;;;;;;;9.60;1.10;;;8.30;99.90;;;;;;4427172;28;656195;-65
2023/10/15 07:24:22;;;;;;;7.70;1.73;;;8.40;99.90;;;;;;4401080;28;655917;-65
2023/10/15 07:27:09;;;;;;;1.70;0.43;;;8.70;99.90;;;;;;4407590;28;656765;-65
2023/10/15 07:29:57;;;;;;;11.43;1.70;;;8.60;99.90;;;;;;4427101;28;655914;-65
2023/10/15 07:32:45;;;;;;;9.97;1.60;;;8.80;99.90;;;;;;4411960;28;656678;-65
2023/10/15 07:35:32;;;;;;;7.33;1.63;;;8.60;99.90;;;;;;4421983;28;655896;-65
2023/10/15 07:38:21;;;;;;;9.77;1.77;;;8.60;99.90;;;;;;4428768;28;657057;-65
2023/10/15 07:41:09;;;;;;;10.57;1.57;;;8.80;99.90;;;;;;4414678;28;655866;-65
2023/10/15 07:43:56;;;;;;;9.07;1.53;;;8.80;99.90;;;;;;4429551;28;656934;-65
2023/10/15 07:46:43;;;;;;;5.30;1.13;;;8.80;99.90;;;;;;4406655;28;655630;-65
2023/10/15 07:49:31;;;;;;;8.77;1.50;;;9.10;99.90;;;;;;4430706;28;656227;-65
2023/10/15 07:52:18;;;;;;;8.60;1.73;;;9.50;99.90;;;;;;4409914;28;655253;-65
2023/10/15 07:55:10;;;;;;;3.10;1.30;;;9.70;99.90;;;;;;4428648;28;655961;-65
2023/10/15 07:57:58;;;;;;;6.93;1.40;;;10.00;99.90;;;;;;4396136;28;656090;-65
2023/10/15 08:00:45;;;;;;;9.57;1.60;;;10.10;99.90;;;;;;4420389;28;656881;-65
2023/10/15 08:03:33;;;;;;;7.68;1.55;;;9.90;99.90;;;;;;4410038;28;656781;-65
2023/10/15 08:06:20;;;;;;;10.00;1.67;;;10.00;99.90;;;;;;4428551;28;656905;-65
2023/10/15 08:09:10;;;;;;;12.15;1.77;;;9.80;99.90;;;;;;4408328;28;657926;-65
2023/10/15 08:11:58;;;;;;;6.87;1.47;;;9.60;99.90;;;;;;4424911;28;656240;-65
2023/10/15 08:14:46;;;;;;;1.53;0.70;;;9.80;99.90;;;;;;4402939;28;657286;-65
2023/10/15 08:17:33;;;;;;;5.03;1.50;;;10.00;99.90;;;;;;4404547;28;655979;-65
2023/10/15 08:20:21;;;;;;;7.73;1.67;;;10.30;99.90;;;;;;4426538;28;657336;-65
2023/10/15 08:23:10;;;;;;;8.73;1.77;;;10.60;99.90;;;;;;4409006;28;656752;-65
2023/10/15 08:25:59;;;;;;;1.70;0.83;;;11.10;99.90;;;;;;4412575;28;656437;-65
2023/10/15 08:28:48;;;;;;;5.97;1.30;;;10.90;99.90;;;;;;4429248;28;657271;-64
2023/10/15 08:31:35;;;;;;;5.40;1.33;;;10.90;99.90;;;;;;4407999;28;656800;-65
2023/10/15 08:34:23;;;;;;;5.93;1.30;;;10.90;99.90;;;;;;4414782;28;656961;-64
2023/10/15 08:37:11;;;;;;;8.63;1.13;;;10.90;99.90;;;;;;4429538;28;656341;-64
2023/10/15 08:39:58;;;;;;;12.13;1.60;;;11.00;99.90;;;;;;4410523;28;657955;-64
2023/10/15 08:42:50;;;;;;;5.85;1.48;;;11.20;99.90;;;;;;4428023;28;658935;-64
2023/10/15 08:45:42;;;;;;;6.70;1.40;;;11.00;99.90;;;;;;4385198;28;657157;-64
2023/10/15 08:48:30;;;;;;;11.17;1.87;;;10.90;99.90;;;;;;4409639;28;657883;-64
2023/10/15 08:51:21;;;;;;;5.27;1.30;;;11.10;99.90;;;;;;4416238;28;657394;-64
2023/10/15 08:54:11;;;;;;;4.90;1.27;;;11.00;99.90;;;;;;4401953;28;656700;-64
2023/10/15 08:56:58;;;;;;;10.67;1.60;;;10.30;99.90;;;;;;4413752;28;656588;-64
2023/10/15 08:59:45;;;;;;;4.70;1.53;;;10.80;99.90;;;;;;4436260;28;658183;-64
2023/10/15 09:02:34;;;;;;;7.90;1.37;;;10.90;99.90;;;;;;4415970;28;656790;-64
2023/10/15 09:05:22;;;;;;;4.33;0.97;;;10.80;99.90;;;;;;4420938;28;656874;-64
2023/10/15 09:08:12;;;;;;;6.10;1.23;;;11.00;99.90;;;;;;4413544;28;657947;-64
2023/10/15 09:10:59;;;;;;;5.70;1.10;;;10.80;99.90;;;;;;4413365;28;657308;-64
2023/10/15 09:13:50;;;;;;;4.27;1.30;;;10.80;99.90;;;;;;4423145;28;656778;-64
2023/10/15 09:16:38;;;;;;;7.17;1.80;;;10.50;99.90;;;;;;4375264;28;656883;-65
2023/10/15 09:19:27;;;;;;;7.47;1.20;;;10.80;99.90;;;;;;4432220;28;657889;-64
2023/10/15 09:22:19;;;;;;;8.80;1.30;;;10.60;99.90;;;;;;4389058;28;656930;-64
2023/10/15 09:25:07;;;;;;;7.67;1.50;;;10.40;99.90;;;;;;4431470;28;657122;-64
2023/10/15 09:27:54;;;;;;;9.20;1.53;;;10.50;99.90;;;;;;4403273;28;657178;-64
2023/10/15 09:30:41;;;;;;;6.10;1.40;;;10.80;99.90;;;;;;4436106;28;657044;-64
2023/10/15 09:33:29;;;;;;;8.17;1.50;;;10.80;99.90;;;;;;4413188;28;656647;-64
2023/10/15 09:36:17;;;;;;;13.33;1.77;;;10.90;99.90;;;;;;4422590;28;656432;-64
2023/10/15 09:39:12;;;;;;;4.83;1.20;;;10.90;99.90;;;;;;4405267;28;658945;-64
2023/10/15 09:42:02;;;;;;;10.57;1.80;;;11.00;99.90;;;;;;4383887;28;657243;-64
2023/10/15 09:44:50;;;;;;;10.17;1.97;;;11.40;99.90;;;;;;4413064;28;658400;-64
2023/10/15 09:47:39;;;;;;;9.37;1.17;;;10.90;99.90;;;;;;4402824;28;657826;-64
2023/10/15 09:50:27;;;;;;;5.87;1.40;;;11.30;99.90;;;;;;4427670;28;656892;-64
2023/10/15 09:53:16;;;;;;;5.40;1.40;;;10.70;90.50;;;;;;4423449;28;657051;-64
2023/10/15 09:56:07;;;;;;;5.13;1.20;;;10.60;95.80;;;;;;4400639;28;657069;-64
2023/10/15 09:58:54;;;;;;;5.00;1.40;;;10.60;93.80;;;;;;4401373;28;657822;-64
2023/10/15 10:01:45;;;;;;;8.27;1.30;;;10.30;94.20;;;;;;4428160;28;656374;-63
2023/10/15 10:04:53;;;;;;;7.33;1.50;;;9.70;99.90;;;;;;4397867;28;657269;-64
2023/10/15 10:07:48;;;;;;;11.30;1.53;;;10.00;99.90;;;;;;4383909;28;656501;-64
2023/10/15 10:11:01;;;;;;;7.97;1.83;;;10.10;97.50;;;;;;4376751;28;659036;-64
2023/10/15 10:14:08;;;;;;;5.57;1.30;;;10.20;99.90;;;;;;4377159;28;657224;-63
2023/10/15 10:16:55;;;;;;;12.17;1.80;;;10.30;99.90;;;;;;4375859;28;657044;-64
2023/10/15 10:19:43;;;;;;;13.47;1.53;;;10.10;99.90;;;;;;4425361;28;658131;-64
2023/10/15 10:22:31;;;;;;;6.00;1.40;;;10.40;99.90;;;;;;4429986;28;659065;-64
2023/10/15 10:25:30;;;;;;;9.27;1.77;;;10.40;95.70;;;;;;4406693;28;656612;-64
2023/10/15 10:28:19;;;;;;;6.00;1.53;;;10.20;96.90;;;;;;4422005;28;656464;-64
2023/10/15 10:31:07;;;;;;;6.13;1.97;;;10.20;99.90;;;;;;4408760;28;657910;-64
2023/10/15 10:33:55;;;;;;;9.47;1.73;;;10.40;99.50;;;;;;4402592;28;657803;-64
2023/10/15 10:36:43;;;;;;;4.32;1.00;;;9.70;99.90;;;;;;4411615;28;656628;-64
2023/10/15 10:39:43;;;;;;;7.40;1.50;;;9.90;96.10;;;;;;4417455;28;657214;-64
2023/10/15 10:42:31;;;;;;;6.63;1.40;;;9.90;99.90;;;;;;4409522;28;656028;-64
2023/10/15 10:45:54;;;;;;;2.20;0.77;;;10.30;99.90;;;;;;4411838;28;655388;-64
2023/10/15 10:48:43;;;;;;;4.33;1.63;;;10.30;92.70;;;;;;4406399;28;656390;-63
2023/10/15 10:51:33;;;;;;;7.17;1.60;;;10.30;97.60;;;;;;4400438;28;657565;-63
2023/10/15 10:54:29;;;;;;;7.23;1.73;;;10.50;94.40;;;;;;4398507;28;657425;-64
2023/10/15 10:57:18;;;;;;;5.83;1.40;;;10.50;91.90;;;;;;4395530;28;656653;-63
2023/10/15 11:00:11;;;;;;;8.93;1.40;;;10.60;97.50;;;;;;4407908;28;657559;-65
2023/10/15 11:03:00;;;;;;;8.07;1.30;;;10.60;96.90;;;;;;4408514;28;656744;-64
2023/10/15 11:05:49;;;;;;;7.43;1.60;;;10.80;92.60;;;;;;4410241;28;657641;-64
2023/10/15 11:08:37;;;;;;;6.50;1.33;;;10.70;95.40;;;;;;4418637;28;657293;-64
2023/10/15 11:11:24;;;;;;;3.90;1.00;;;10.80;95.40;;;;;;4411733;28;657221;-64
2023/10/15 11:14:12;;;;;;;7.10;1.90;;;10.60;94.40;;;;;;4429498;28;656981;-64
2023/10/15 11:17:00;;;;;;;6.83;1.63;;;10.90;99.90;;;;;;4390732;28;656921;-64
2023/10/15 11:19:47;;;;;;;5.27;1.50;;;10.90;94.00;;;;;;4430743;28;656170;-64
2023/10/15 11:22:36;;;;;;;4.70;1.40;;;10.90;95.20;;;;;;4407028;28;658288;-63
2023/10/15 11:25:24;;;;;;;7.67;1.43;;;10.80;92.70;;;;;;4400296;28;656813;-64
2023/10/15 11:28:12;;;;;;;10.23;1.30;;;10.60;93.60;;;;;;4420688;28;656745;-64
2023/10/15 11:31:01;;;;;;;6.77;1.70;;;10.70;94.50;;;;;;4409441;28;658416;-64
2023/10/15 11:33:49;;;;;;;5.07;1.37;;;10.50;93.20;;;;;;4404861;28;657019;-63
2023/10/15 11:36:37;;;;;;;6.87;1.40;;;10.20;95.20;;;;;;4430557;28;657072;-64
2023/10/15 11:39:35;;;;;;;5.90;1.50;;;9.90;99.90;;;;;;4395734;28;657530;-64
2023/10/15 11:42:24;;;;;;;5.30;1.37;;;10.40;99.90;;;;;;4392649;28;655107;-64
2023/10/15 11:45:19;;;;;;;6.17;1.60;;;10.60;99.90;;;;;;4429051;28;657034;-63
2023/10/15 11:48:11;;;;;;;4.90;1.43;;;10.70;99.90;;;;;;4406574;28;656907;-63
2023/10/15 11:50:59;;;;;;;7.72;1.50;;;10.60;99.90;;;;;;4377094;28;658190;-63
2023/10/15 11:53:47;;;;;;;5.43;1.60;;;10.60;99.90;;;;;;4425936;28;656951;-63
2023/10/15 11:56:38;;;;;;;1.20;0.80;;;10.60;99.90;;;;;;4395547;28;658227;-63
2023/10/15 11:59:25;;;;;;;5.00;1.60;;;10.60;99.90;;;;;;4420051;28;656937;-63
2023/10/15 12:02:13;;;;;;;9.60;1.97;;;10.80;99.90;;;;;;4398981;28;657044;-64
2023/10/15 12:05:01;;;;;;;9.80;1.77;;;11.10;99.90;;;;;;4430051;28;656234;-63
2023/10/15 12:07:48;;;;;;;7.30;1.80;;;11.20;97.60;;;;;;4412439;28;656488;-63
2023/10/15 12:10:36;;;;;;;9.33;1.57;;;11.40;99.90;;;;;;4425680;28;657327;-64
2023/10/15 12:13:24;;;;;;;6.07;1.60;;;11.60;99.90;;;;;;4410791;28;656834;-64
2023/10/15 12:16:13;;;;;;;7.23;1.50;;;11.10;95.40;;;;;;4411274;28;656614;-64
2023/10/15 12:19:00;;;;;;;5.40;1.40;;;11.20;95.90;;;;;;4429595;28;657787;-64
2023/10/15 12:21:47;;;;;;;4.50;1.13;;;11.50;96.60;;;;;;4410972;28;656479;-64
2023/10/15 12:24:35;;;;;;;10.63;1.70;;;11.50;88.40;;;;;;4434486;28;657346;-64
2023/10/15 12:27:25;;;;;;;4.27;0.90;;;11.40;91.80;;;;;;4419123;28;657648;-64
2023/10/15 12:30:19;;;;;;;5.90;1.37;;;11.60;79.20;;;;;;4423563;28;656485;-64
2023/10/15 12:33:07;;;;;;;3.47;0.90;;;10.90;80.30;;;;;;4397979;28;656837;-63
2023/10/15 12:35:54;;;;;;;6.77;1.70;;;10.80;79.00;;;;;;4406510;28;658496;-63
2023/10/15 12:38:43;;;;;;;13.27;1.60;;;10.80;83.30;;;;;;4430621;28;657068;-63
2023/10/15 12:41:30;;;;;;;7.50;1.53;;;10.70;85.30;;;;;;4400189;28;657771;-63
2023/10/15 12:44:18;;;;;;;10.07;1.90;;;10.60;87.60;;;;;;4401380;28;656459;-63
2023/10/15 12:47:08;;;;;;;9.13;1.80;;;10.40;87.40;;;;;;4429267;28;658871;-63
2023/10/15 12:49:55;;;;;;;5.67;1.70;;;10.40;89.70;;;;;;4408101;28;657093;-63
2023/10/15 12:52:43;;;;;;;8.53;1.97;;;10.40;93.90;;;;;;4404566;28;656419;-64
2023/10/15 12:55:30;;;;;;;4.83;1.50;;;10.10;95.30;;;;;;4432549;28;656939;-63
2023/10/15 12:58:18;;;;;;;8.53;1.70;;;10.10;95.30;;;;;;4410110;28;657470;-64
2023/10/15 13:01:05;;;;;;;2.80;1.03;;;9.80;95.70;;;;;;4429046;28;657573;-63
2023/10/15 13:03:57;;;;;;;8.53;1.90;;;9.80;98.50;;;;;;4401257;28;655413;-64
2023/10/15 13:06:44;;;;;;;5.17;1.73;;;10.10;99.90;;;;;;4416171;28;656973;-63
2023/10/15 13:09:33;;;;;;;5.17;1.07;;;9.90;99.40;;;;;;4447049;28;656807;-63
2023/10/15 13:12:20;;;;;;;7.50;1.60;;;10.30;96.30;;;;;;4410599;28;655909;-63
2023/10/15 13:15:10;;;;;;;6.50;1.40;;;10.30;99.90;;;;;;4408546;28;656493;-63
2023/10/15 13:17:58;;;;;;;4.83;1.63;;;10.10;94.80;;;;;;4437032;28;657494;-63
2023/10/15 13:20:47;;;;;;;6.90;1.30;;;9.70;98.00;;;;;;4413626;28;658082;-63
2023/10/15 13:23:35;;;;;;;7.10;1.50;;;9.60;99.00;;;;;;4410916;28;655980;-63
2023/10/15 13:26:23;;;;;;;6.00;1.40;;;9.60;99.90;;;;;;4437000;28;656446;-63
2023/10/15 13:29:11;;;;;;;5.63;1.47;;;9.40;98.40;;;;;;4436166;28;656449;-63
2023/10/15 13:31:58;;;;;;;9.33;1.40;;;9.50;98.90;;;;;;4419619;28;655496;-63
2023/10/15 13:34:45;;;;;;;7.80;1.27;;;9.50;98.90;;;;;;4433008;28;656973;-63
2023/10/15 13:37:34;;;;;;;2.57;0.83;;;9.50;98.60;;;;;;4417885;28;655558;-63
2023/10/15 13:40:23;;;;;;;5.00;1.17;;;9.50;91.80;;;;;;4439178;28;656013;-63
2023/10/15 13:43:11;;;;;;;5.63;1.20;;;9.40;92.30;;;;;;4420220;28;656774;-63
2023/10/15 13:45:58;;;;;;;8.07;1.50;;;9.40;95.00;;;;;;4410540;28;655983;-63
2023/10/15 13:48:45;;;;;;;7.50;1.73;;;9.50;93.60;;;;;;4451311;28;656601;-63
2023/10/15 13:51:33;;;;;;;5.07;1.27;;;9.40;97.40;;;;;;4418551;28;656171;-63
2023/10/15 13:54:22;;;;;;;7.23;1.60;;;9.40;97.30;;;;;;4433837;28;655953;-63
2023/10/15 13:57:10;;;;;;;4.93;1.60;;;9.20;99.90;;;;;;4409519;28;657019;-63
2023/10/15 13:59:58;;;;;;;9.48;1.63;;;9.20;99.90;;;;;;4417397;28;655397;-63
2023/10/15 14:02:45;;;;;;;4.27;1.50;;;9.30;99.90;;;;;;4436264;28;656438;-63
2023/10/15 14:05:33;;;;;;;6.13;1.50;;;9.10;99.90;;;;;;4404021;28;655565;-63
2023/10/15 14:08:21;;;;;;;9.07;1.70;;;9.10;97.60;;;;;;4446431;28;655983;-63
2023/10/15 14:11:10;;;;;;;5.33;1.63;;;9.10;99.90;;;;;;4424985;28;655685;-63
2023/10/15 14:13:57;;;;;;;12.30;1.63;;;9.20;99.90;;;;;;4425764;28;655643;-63
2023/10/15 14:16:46;;;;;;;5.03;1.90;;;9.40;99.90;;;;;;4421402;28;657710;-64
2023/10/15 14:19:34;;;;;;;10.68;2.00;;;9.90;99.90;;;;;;4413361;28;656374;-64
2023/10/15 14:22:21;;;;;;;7.67;1.90;;;10.60;94.50;;;;;;4431118;28;656837;-64
2023/10/15 14:25:09;;;;;;;6.03;2.13;;;10.80;90.50;;;;;;4412322;28;656933;-64
2023/10/15 14:27:57;;;;;;;6.43;1.90;;;10.90;94.00;;;;;;4420852;28;657070;-63
2023/10/15 14:30:45;;;;;;;12.23;2.30;;;10.70;97.50;;;;;;4412606;28;657381;-63
2023/10/15 14:33:33;;;;;;;10.03;2.33;;;10.40;97.30;;;;;;4428045;28;657476;-64